createdAt,value
2017-09-05T00:01:21.118Z,11.30
2017-09-05T00:03:48.652Z,10.60
2017-09-05T00:06:16.171Z,11.77
2017-09-05T00:08:44.620Z,10.77
2017-09-05T00:11:12.265Z,10.50
2017-09-05T00:13:44.686Z,11.60
2017-09-05T00:16:13.016Z,11.40
2017-09-05T00:18:51.360Z,10.30
2017-09-05T00:21:28.804Z,10.80
2017-09-05T00:23:56.333Z,11.57
2017-09-05T00:26:24.621Z,11.00
2017-09-05T00:28:52.171Z,11.97
2017-09-05T00:31:19.704Z,11.83
2017-09-05T00:33:47.255Z,10.07
2017-09-05T00:36:14.816Z,10.83
2017-09-05T00:38:42.353Z,10.43
2017-09-05T00:41:09.861Z,9.90
2017-09-05T00:43:37.415Z,10.77
2017-09-05T00:46:04.925Z,9.57
2017-09-05T00:48:32.428Z,9.57
2017-09-05T00:50:59.998Z,9.87
2017-09-05T00:53:27.511Z,9.27
2017-09-05T00:55:55.035Z,10.43
2017-09-05T00:58:22.581Z,11.10
2017-09-05T01:00:50.871Z,9.90
2017-09-05T01:03:18.395Z,9.90
2017-09-05T01:05:45.940Z,9.30
2017-09-05T01:08:13.456Z,9.80
2017-09-05T01:10:40.973Z,9.70
2017-09-05T01:13:08.603Z,10.67
2017-09-05T01:15:36.134Z,10.00
2017-09-05T01:18:03.650Z,9.67
2017-09-05T01:20:31.215Z,10.23
2017-09-05T01:22:58.731Z,9.93
2017-09-05T01:25:26.248Z,11.43
2017-09-05T01:27:54.600Z,10.83
2017-09-05T01:30:22.133Z,10.80
2017-09-05T01:32:49.660Z,12.20
2017-09-05T01:35:17.989Z,10.97
2017-09-05T01:37:45.513Z,13.80
2017-09-05T01:40:13.032Z,10.90
2017-09-05T01:42:40.599Z,11.73
2017-09-05T01:45:08.139Z,10.27
2017-09-05T01:47:35.653Z,10.53
2017-09-05T01:50:03.203Z,11.13
2017-09-05T01:52:30.721Z,12.07
2017-09-05T01:54:58.242Z,10.50
2017-09-05T01:57:25.769Z,9.40
2017-09-05T01:59:54.042Z,9.87
2017-09-05T02:02:21.564Z,9.90
2017-09-05T02:04:49.102Z,11.20
2017-09-05T02:07:16.635Z,11.73
2017-09-05T02:09:44.156Z,10.80
2017-09-05T02:12:11.705Z,10.67
2017-09-05T02:14:39.236Z,10.03
2017-09-05T02:17:06.754Z,10.67
2017-09-05T02:19:34.300Z,10.33
2017-09-05T02:22:01.832Z,9.60
2017-09-05T02:24:29.348Z,9.60
2017-09-05T02:26:56.901Z,11.37
2017-09-05T02:29:24.421Z,9.63
2017-09-05T02:31:51.962Z,9.20
2017-09-05T02:34:19.489Z,9.03
2017-09-05T02:36:47.011Z,9.90
2017-09-05T02:39:14.527Z,9.80
2017-09-05T02:41:42.065Z,9.83
2017-09-05T02:44:09.565Z,8.47
2017-09-05T02:46:37.096Z,9.70
2017-09-05T02:49:04.640Z,8.53
2017-09-05T02:51:32.212Z,9.20
2017-09-05T02:53:59.730Z,9.17
2017-09-05T02:56:28.026Z,8.63
2017-09-05T02:58:55.530Z,8.87
2017-09-05T03:01:23.041Z,9.40
2017-09-05T03:03:50.575Z,8.17
2017-09-05T03:06:18.094Z,8.93
2017-09-05T03:08:45.625Z,9.50
2017-09-05T03:11:13.151Z,8.70
2017-09-05T03:13:40.679Z,8.57
2017-09-05T03:16:08.198Z,9.10
2017-09-05T03:18:35.741Z,10.00
2017-09-05T03:21:03.268Z,9.17
2017-09-05T03:23:30.786Z,9.17
2017-09-05T03:25:58.341Z,9.37
2017-09-05T03:28:25.872Z,8.97
2017-09-05T03:30:53.404Z,8.77
2017-09-05T03:33:20.952Z,9.83
2017-09-05T03:35:48.446Z,8.87
2017-09-05T03:38:15.946Z,8.27
2017-09-05T03:40:43.488Z,8.30
2017-09-05T03:43:11.000Z,8.60
2017-09-05T03:45:38.511Z,8.90
2017-09-05T03:48:06.038Z,9.40
2017-09-05T03:50:33.553Z,8.93
2017-09-05T03:53:01.049Z,9.00
2017-09-05T03:55:28.570Z,8.93
2017-09-05T03:57:56.070Z,9.83
2017-09-05T04:00:23.573Z,9.80
2017-09-05T04:02:51.108Z,8.73
2017-09-05T04:05:18.631Z,8.67
2017-09-05T04:07:46.142Z,9.53
2017-09-05T04:10:13.691Z,9.00
2017-09-05T04:12:41.209Z,8.57
2017-09-05T04:15:08.733Z,9.43
2017-09-05T04:17:36.261Z,7.30
2017-09-05T04:20:04.556Z,8.80
2017-09-05T04:22:32.063Z,8.50
2017-09-05T04:24:59.606Z,10.90
2017-09-05T04:27:27.141Z,9.00
2017-09-05T04:29:54.661Z,9.47
2017-09-05T04:32:22.199Z,8.27
2017-09-05T04:34:49.696Z,9.73
2017-09-05T04:37:17.202Z,9.87
2017-09-05T04:39:44.738Z,10.30
2017-09-05T04:42:12.249Z,9.00
2017-09-05T04:44:39.760Z,9.10
2017-09-05T04:47:07.284Z,8.93
2017-09-05T04:49:34.815Z,8.73
2017-09-05T04:52:02.326Z,10.37
2017-09-05T04:54:29.856Z,9.53
2017-09-05T04:56:57.358Z,9.30
2017-09-05T04:59:24.869Z,8.87
2017-09-05T05:01:52.497Z,9.37
2017-09-05T05:04:20.028Z,8.37
2017-09-05T05:06:47.565Z,9.57
2017-09-05T05:09:15.845Z,9.90
2017-09-05T05:11:43.366Z,9.23
2017-09-05T05:14:10.954Z,9.17
2017-09-05T05:16:38.465Z,10.27
2017-09-05T05:19:06.064Z,10.90
2017-09-05T05:21:33.592Z,8.87
2017-09-05T05:24:01.117Z,9.63
2017-09-05T05:26:28.651Z,10.43
2017-09-05T05:28:56.973Z,9.10
2017-09-05T05:31:24.643Z,9.40
2017-09-05T05:33:52.154Z,10.17
2017-09-05T05:36:19.695Z,10.47
2017-09-05T05:38:47.235Z,9.30
2017-09-05T05:41:14.796Z,9.70
2017-09-05T05:43:42.416Z,10.30
2017-09-05T05:46:09.935Z,9.33
2017-09-05T05:48:37.433Z,9.33
2017-09-05T05:51:04.968Z,8.87
2017-09-05T05:53:34.462Z,8.00
2017-09-05T05:56:02.061Z,8.93
2017-09-05T05:58:29.553Z,7.93
2017-09-05T06:00:57.056Z,7.77
2017-09-05T06:03:24.590Z,9.20
2017-09-05T06:05:52.100Z,8.90
2017-09-05T06:08:19.631Z,8.37
2017-09-05T06:10:47.184Z,8.40
2017-09-05T06:13:14.705Z,9.00
2017-09-05T06:15:42.238Z,7.60
2017-09-05T06:18:09.752Z,8.30
2017-09-05T06:20:37.272Z,8.10
2017-09-05T06:23:04.866Z,8.17
2017-09-05T06:25:32.374Z,7.27
2017-09-05T06:27:59.877Z,7.80
2017-09-05T06:30:27.446Z,7.90
2017-09-05T06:32:55.096Z,7.70
2017-09-05T06:35:22.619Z,7.07
2017-09-05T06:37:50.153Z,7.87
2017-09-05T06:40:17.676Z,7.00
2017-09-05T06:42:45.176Z,6.60
2017-09-05T06:45:12.722Z,7.17
2017-09-05T06:47:40.261Z,7.23
2017-09-05T06:50:07.772Z,8.13
2017-09-05T06:52:35.300Z,7.83
2017-09-05T06:55:02.801Z,7.30
2017-09-05T06:57:30.322Z,6.97
2017-09-05T06:59:58.626Z,6.13
2017-09-05T07:02:26.148Z,7.60
2017-09-05T07:04:53.688Z,7.10
2017-09-05T07:07:21.213Z,6.90
2017-09-05T07:09:48.792Z,6.90
2017-09-05T07:12:16.281Z,6.10
2017-09-05T07:14:44.582Z,6.93
2017-09-05T07:17:12.100Z,7.77
2017-09-05T07:19:39.644Z,7.13
2017-09-05T07:22:07.191Z,6.40
2017-09-05T07:24:34.705Z,7.17
2017-09-05T07:27:02.988Z,7.20
2017-09-05T07:29:30.512Z,6.70
2017-09-05T07:31:58.034Z,6.47
2017-09-05T07:34:25.551Z,7.00
2017-09-05T07:36:53.099Z,7.17
2017-09-05T07:39:20.647Z,6.83
2017-09-05T07:41:48.178Z,7.20
2017-09-05T07:44:15.699Z,6.50
2017-09-05T07:46:43.235Z,7.20
2017-09-05T07:49:10.788Z,7.07
2017-09-05T07:51:38.303Z,7.07
2017-09-05T07:54:05.827Z,6.17
2017-09-05T07:56:33.323Z,5.90
2017-09-05T07:59:00.829Z,6.30
2017-09-05T08:01:28.372Z,6.40
2017-09-05T08:03:55.865Z,6.40
2017-09-05T08:06:23.400Z,7.03
2017-09-05T08:08:50.984Z,6.93
2017-09-05T08:11:18.493Z,6.83
2017-09-05T08:13:46.011Z,6.23
2017-09-05T08:16:13.539Z,6.40
2017-09-05T08:18:41.068Z,6.37
2017-09-05T08:21:08.612Z,6.57
2017-09-05T08:23:36.144Z,6.57
2017-09-05T08:26:03.707Z,5.90
2017-09-05T08:28:31.244Z,5.53
2017-09-05T08:30:58.728Z,5.43
2017-09-05T08:33:26.328Z,6.00
2017-09-05T08:35:53.832Z,5.50
2017-09-05T08:38:21.331Z,5.30
2017-09-05T08:40:48.865Z,4.80
2017-09-05T08:43:16.385Z,5.10
2017-09-05T08:45:43.908Z,4.63
2017-09-05T08:48:11.446Z,5.50
2017-09-05T08:50:38.956Z,5.57
2017-09-05T08:53:06.491Z,5.63
2017-09-05T08:55:34.043Z,4.90
2017-09-05T08:58:01.556Z,5.83
2017-09-05T09:00:29.834Z,5.00
2017-09-05T09:02:57.383Z,4.60
2017-09-05T09:05:24.885Z,4.27
2017-09-05T09:07:52.403Z,4.40
2017-09-05T09:10:19.956Z,4.50
2017-09-05T09:12:47.466Z,4.40
2017-09-05T09:15:14.969Z,4.63
2017-09-05T09:17:42.505Z,4.03
2017-09-05T09:20:09.993Z,4.50
2017-09-05T09:22:37.501Z,4.43
2017-09-05T09:25:05.043Z,4.40
2017-09-05T09:27:32.556Z,4.20
2017-09-05T09:30:00.429Z,4.07
2017-09-05T09:32:27.960Z,4.13
2017-09-05T09:34:55.465Z,3.77
2017-09-05T09:37:22.967Z,4.50
2017-09-05T09:39:50.510Z,4.13
2017-09-05T09:42:18.029Z,4.20
2017-09-05T09:44:45.535Z,4.10
2017-09-05T09:47:13.073Z,3.80
2017-09-05T09:49:40.574Z,3.70
2017-09-05T09:52:08.085Z,3.43
2017-09-05T09:54:35.644Z,4.53
2017-09-05T09:57:03.234Z,4.33
2017-09-05T09:59:30.761Z,13.37
2017-09-05T10:01:58.292Z,3.90
2017-09-05T10:04:25.897Z,3.60
2017-09-05T10:06:53.578Z,3.00
2017-09-05T10:09:21.104Z,3.30
2017-09-05T10:11:49.382Z,3.53
2017-09-05T10:14:16.873Z,3.90
2017-09-05T10:16:44.399Z,3.57
2017-09-05T10:19:11.922Z,3.87
2017-09-05T10:21:39.429Z,3.37
2017-09-05T10:24:06.970Z,3.40
2017-09-05T10:26:34.484Z,5.17
2017-09-05T10:29:01.985Z,4.30
2017-09-05T10:31:29.539Z,3.43
2017-09-05T10:33:57.063Z,3.57
2017-09-05T10:36:24.575Z,3.93
2017-09-05T10:38:52.124Z,4.47
2017-09-05T10:41:19.623Z,3.70
2017-09-05T10:43:47.136Z,3.97
2017-09-05T10:46:14.673Z,4.20
2017-09-05T10:48:42.210Z,4.30
2017-09-05T10:51:09.723Z,4.37
2017-09-05T10:53:38.055Z,4.73
2017-09-05T10:56:05.565Z,5.40
2017-09-05T10:58:33.073Z,4.40
2017-09-05T11:01:00.583Z,5.40
2017-09-05T11:03:28.079Z,5.03
2017-09-05T11:05:55.600Z,4.30
2017-09-05T11:08:23.140Z,6.43
2017-09-05T11:10:50.640Z,5.10
2017-09-05T11:13:18.157Z,4.93
2017-09-05T11:15:45.683Z,5.73
2017-09-05T11:18:13.183Z,6.17
2017-09-05T11:20:40.748Z,4.97
2017-09-05T11:23:08.284Z,5.27
2017-09-05T11:25:35.797Z,5.73
2017-09-05T11:28:03.298Z,5.20
2017-09-05T11:30:30.841Z,5.10
2017-09-05T11:32:58.374Z,6.37
2017-09-05T11:35:25.885Z,5.60
2017-09-05T11:37:53.419Z,5.53
2017-09-05T11:40:20.934Z,4.90
2017-09-05T11:42:48.438Z,6.83
2017-09-05T11:45:16.017Z,5.57
2017-09-05T11:47:43.530Z,4.70
2017-09-05T11:50:11.078Z,5.20
2017-09-05T11:52:38.629Z,4.80
2017-09-05T11:55:06.133Z,5.30
2017-09-05T11:57:33.626Z,4.80
2017-09-05T12:00:01.152Z,4.60
2017-09-05T12:02:28.645Z,5.40
2017-09-05T12:04:56.939Z,5.17
2017-09-05T12:07:24.481Z,5.27
2017-09-05T12:09:52.755Z,5.00
2017-09-05T12:12:20.281Z,4.30
2017-09-05T12:17:21.634Z,4.80
2017-09-05T12:19:49.179Z,4.80
2017-09-05T12:22:16.677Z,5.23
2017-09-05T12:24:44.191Z,5.20
2017-09-05T12:27:11.733Z,6.53
2017-09-05T12:29:39.246Z,5.73
2017-09-05T12:32:06.737Z,5.87
2017-09-05T12:34:34.284Z,5.70
2017-09-05T12:37:01.804Z,5.70
2017-09-05T12:39:29.324Z,4.50
2017-09-05T12:41:57.635Z,5.50
2017-09-05T12:44:25.184Z,5.50
2017-09-05T12:46:52.680Z,5.00
2017-09-05T12:49:20.189Z,6.10
2017-09-05T12:51:47.707Z,5.20
2017-09-05T12:54:15.268Z,6.47
2017-09-05T12:56:42.827Z,5.50
2017-09-05T12:59:10.352Z,5.77
2017-09-05T13:01:37.880Z,4.60
2017-09-05T13:04:05.397Z,4.73
2017-09-05T13:06:32.896Z,4.37
2017-09-05T13:09:00.424Z,3.57
2017-09-05T13:11:27.946Z,3.30
2017-09-05T13:13:55.464Z,3.70
2017-09-05T13:16:22.972Z,4.07
2017-09-05T13:18:50.493Z,4.00
2017-09-05T13:21:18.000Z,4.80
2017-09-05T13:23:45.504Z,4.00
2017-09-05T13:26:13.820Z,4.10
2017-09-05T13:28:41.364Z,4.23
2017-09-05T13:31:08.923Z,3.60
2017-09-05T13:33:36.479Z,3.53
2017-09-05T13:36:04.001Z,4.80
2017-09-05T13:38:31.509Z,4.77
2017-09-05T13:40:59.107Z,4.37
2017-09-05T13:43:26.626Z,4.60
2017-09-05T13:45:54.169Z,4.80
2017-09-05T13:48:21.759Z,4.17
2017-09-05T13:50:49.417Z,3.90
2017-09-05T13:53:17.475Z,3.90
2017-09-05T13:55:46.058Z,3.33
2017-09-05T13:58:14.644Z,3.60
2017-09-05T14:00:44.045Z,3.30
2017-09-05T14:03:12.935Z,3.30
2017-09-05T14:05:41.506Z,3.20
2017-09-05T14:08:10.819Z,3.30
2017-09-05T14:10:39.609Z,3.40
2017-09-05T14:13:08.634Z,3.00
2017-09-05T14:15:37.181Z,2.80
2017-09-05T14:18:05.872Z,3.27
2017-09-05T14:20:34.558Z,3.00
2017-09-05T14:23:03.858Z,3.83
2017-09-05T14:25:32.647Z,3.47
2017-09-05T14:28:01.243Z,4.03
2017-09-05T14:30:30.736Z,3.70
2017-09-05T14:32:59.832Z,3.93
2017-09-05T14:35:28.416Z,3.87
2017-09-05T14:37:57.000Z,4.07
2017-09-05T14:40:26.611Z,4.43
2017-09-05T14:42:55.194Z,3.50
2017-09-05T14:45:23.908Z,4.03
2017-09-05T14:47:52.259Z,3.93
2017-09-05T14:50:20.841Z,3.80
2017-09-05T14:52:49.424Z,4.00
2017-09-05T14:55:18.315Z,3.80
2017-09-05T14:57:47.001Z,5.20
2017-09-05T15:00:15.585Z,4.57
2017-09-05T15:02:46.119Z,4.50
2017-09-05T15:05:14.253Z,4.70
2017-09-05T15:07:42.773Z,4.50
2017-09-05T15:10:11.456Z,4.20
2017-09-05T15:12:40.040Z,4.40
2017-09-05T15:15:08.637Z,4.40
2017-09-05T15:17:37.412Z,4.80
2017-09-05T15:20:06.007Z,4.20
2017-09-05T15:22:34.596Z,4.87
2017-09-05T15:25:04.086Z,3.87
2017-09-05T15:27:32.678Z,4.50
2017-09-05T15:30:01.275Z,4.93
2017-09-05T15:32:30.041Z,4.63
2017-09-05T15:34:58.626Z,4.40
2017-09-05T15:37:27.414Z,5.50
2017-09-05T15:39:55.628Z,5.73
2017-09-05T15:42:24.175Z,4.50
2017-09-05T15:44:52.763Z,5.30
2017-09-05T15:47:21.545Z,5.60
2017-09-05T15:49:50.230Z,6.00
2017-09-05T15:52:18.554Z,5.40
2017-09-05T15:54:46.963Z,4.77
2017-09-05T15:57:16.811Z,5.03
2017-09-05T15:59:45.589Z,5.80
2017-09-05T16:02:14.284Z,5.30
2017-09-05T16:04:42.868Z,5.30
2017-09-05T16:07:11.750Z,5.43
2017-09-05T16:09:40.232Z,5.77
2017-09-05T16:12:08.917Z,5.83
2017-09-05T16:14:38.133Z,6.10
2017-09-05T16:17:06.681Z,4.70
2017-09-05T16:19:35.285Z,4.23
2017-09-05T16:22:04.175Z,4.23
2017-09-05T16:24:32.781Z,4.13
2017-09-05T16:27:01.352Z,3.27
2017-09-05T16:29:30.233Z,2.50
2017-09-05T16:31:58.461Z,2.80
2017-09-05T16:34:27.093Z,2.70
2017-09-05T16:36:55.882Z,2.97
2017-09-05T16:39:25.388Z,1.87
2017-09-05T16:41:53.973Z,1.90
2017-09-05T16:44:23.272Z,1.93
2017-09-05T16:46:52.982Z,2.23
2017-09-05T16:49:21.567Z,2.23
2017-09-05T16:51:50.467Z,2.40
2017-09-05T16:54:18.734Z,2.30
2017-09-05T16:56:46.805Z,2.37
2017-09-05T16:59:14.877Z,2.10
2017-09-05T17:01:42.405Z,2.10
2017-09-05T17:04:09.902Z,2.67
2017-09-05T17:06:37.498Z,2.27
2017-09-05T17:09:05.010Z,2.27
2017-09-05T17:11:32.523Z,2.27
2017-09-05T17:14:00.239Z,1.80
2017-09-05T17:16:27.756Z,2.23
2017-09-05T17:18:56.048Z,2.70
2017-09-05T17:21:23.592Z,2.10
2017-09-05T17:23:51.304Z,1.80
2017-09-05T17:26:19.695Z,1.90
2017-09-05T17:28:47.287Z,1.60
2017-09-05T17:31:15.310Z,2.13
2017-09-05T17:33:43.786Z,2.43
2017-09-05T17:36:12.677Z,1.90
2017-09-05T17:38:41.260Z,2.10
2017-09-05T17:41:09.847Z,1.87
2017-09-05T17:43:38.734Z,1.60
2017-09-05T17:46:08.038Z,1.73
2017-09-05T17:48:36.635Z,1.83
2017-09-05T17:51:06.125Z,1.50
2017-09-05T17:53:34.725Z,1.50
2017-09-05T17:56:03.395Z,1.17
2017-09-05T17:58:32.287Z,1.50
2017-09-05T18:01:00.971Z,1.70
2017-09-05T18:03:29.452Z,1.60
2017-09-05T18:05:58.346Z,1.57
2017-09-05T18:08:26.415Z,1.30
2017-09-05T18:10:53.984Z,1.70
2017-09-05T18:13:21.600Z,1.70
2017-09-05T18:15:49.113Z,1.80
2017-09-05T18:18:16.636Z,1.60
2017-09-05T18:20:44.200Z,1.60
2017-09-05T18:23:11.719Z,1.70
2017-09-05T18:25:39.224Z,1.40
2017-09-05T18:28:06.781Z,1.40
2017-09-05T18:30:34.288Z,1.43
2017-09-05T18:33:01.820Z,1.77
2017-09-05T18:35:29.367Z,1.60
2017-09-05T18:37:56.869Z,1.60
2017-09-05T18:40:24.369Z,1.50
2017-09-05T18:42:52.017Z,1.40
2017-09-05T18:45:19.551Z,1.70
2017-09-05T18:47:47.151Z,1.60
2017-09-05T18:50:14.710Z,1.27
2017-09-05T18:52:42.248Z,1.70
2017-09-05T18:55:09.778Z,1.40
2017-09-05T18:57:37.309Z,1.47
2017-09-05T19:00:04.825Z,1.50
2017-09-05T19:02:32.344Z,1.70
2017-09-05T19:04:59.888Z,1.50
2017-09-05T19:07:27.388Z,1.80
2017-09-05T19:09:54.932Z,1.60
2017-09-05T19:12:22.444Z,1.77
2017-09-05T19:14:50.041Z,1.30
2017-09-05T19:17:17.545Z,2.10
2017-09-05T19:19:45.141Z,1.30
2017-09-05T19:22:12.692Z,1.30
2017-09-05T19:24:40.379Z,1.57
2017-09-05T19:27:08.124Z,1.30
2017-09-05T19:29:35.791Z,1.20
2017-09-05T19:32:03.350Z,1.30
2017-09-05T19:34:30.875Z,1.50
2017-09-05T19:36:58.397Z,1.30
2017-09-05T19:39:25.897Z,1.30
2017-09-05T19:41:53.405Z,1.20
2017-09-05T19:44:20.973Z,1.50
2017-09-05T19:46:48.509Z,1.23
2017-09-05T19:49:16.028Z,1.40
2017-09-05T19:51:43.564Z,1.40
2017-09-05T19:54:11.200Z,1.27
2017-09-05T19:56:38.728Z,1.20
2017-09-05T19:59:06.228Z,1.60
2017-09-05T20:01:33.765Z,1.73
2017-09-05T20:04:01.297Z,1.30
2017-09-05T20:06:28.813Z,1.60
2017-09-05T20:08:56.379Z,1.40
2017-09-05T20:11:23.929Z,1.30
2017-09-05T20:13:51.515Z,1.70
2017-09-05T20:16:19.059Z,1.50
2017-09-05T20:18:46.588Z,1.43
2017-09-05T20:21:14.148Z,1.40
2017-09-05T20:23:41.667Z,1.60
2017-09-05T20:26:09.223Z,1.40
2017-09-05T20:28:36.784Z,1.53
2017-09-05T20:31:05.059Z,1.40
2017-09-05T20:33:32.600Z,1.60
2017-09-05T20:36:00.161Z,1.60
2017-09-05T20:38:27.820Z,1.40
2017-09-05T20:40:55.343Z,1.60
2017-09-05T20:43:22.887Z,1.60
2017-09-05T20:45:50.389Z,1.30
2017-09-05T20:48:17.912Z,1.50
2017-09-05T20:50:45.447Z,1.63
2017-09-05T20:53:12.955Z,1.50
2017-09-05T20:55:40.487Z,1.47
2017-09-05T20:58:08.148Z,1.60
2017-09-05T21:00:35.665Z,1.20
2017-09-05T21:03:03.178Z,1.40
2017-09-05T21:05:30.736Z,1.80
2017-09-05T21:07:58.249Z,1.27
2017-09-05T21:10:25.757Z,1.30
2017-09-05T21:12:53.301Z,1.30
2017-09-05T21:15:20.828Z,1.90
2017-09-05T21:17:49.100Z,1.30
2017-09-05T21:20:16.632Z,1.50
2017-09-05T21:22:44.133Z,1.60
2017-09-05T21:25:11.660Z,1.50
2017-09-05T21:27:39.209Z,1.37
2017-09-05T21:30:06.732Z,1.70
2017-09-05T21:32:34.308Z,1.80
2017-09-05T21:35:01.848Z,1.80
2017-09-05T21:37:29.360Z,1.40
2017-09-05T21:39:57.659Z,1.50
2017-09-05T21:42:25.192Z,1.70
2017-09-05T21:44:52.713Z,1.47
2017-09-05T21:47:20.222Z,1.70
2017-09-05T21:49:47.772Z,2.30
2017-09-05T21:52:15.732Z,1.90
2017-09-05T21:54:43.233Z,1.50
2017-09-05T21:57:10.784Z,1.50
2017-09-05T21:59:38.308Z,1.67
2017-09-05T22:02:05.809Z,1.70
2017-09-05T22:04:33.335Z,1.57
2017-09-05T22:07:00.856Z,1.70
2017-09-05T22:09:28.368Z,1.77
2017-09-05T22:11:55.928Z,1.90
2017-09-05T22:14:30.033Z,1.73
2017-09-05T22:16:57.576Z,1.63
2017-09-05T22:19:30.908Z,1.63
2017-09-05T22:21:58.440Z,1.70
2017-09-05T22:24:31.659Z,1.90
2017-09-05T22:27:04.813Z,1.80
2017-09-05T22:29:32.326Z,1.90
2017-09-05T22:31:59.875Z,1.60
2017-09-05T22:34:27.409Z,1.80
2017-09-05T22:36:54.933Z,2.07
2017-09-05T22:39:22.525Z,2.13
2017-09-05T22:41:50.042Z,1.90
2017-09-05T22:44:17.560Z,1.60
2017-09-05T22:46:45.104Z,1.90
2017-09-05T22:49:13.387Z,1.70
2017-09-05T22:51:40.896Z,1.77
2017-09-05T22:54:08.438Z,1.97
2017-09-05T22:56:35.950Z,1.90
2017-09-05T22:59:03.473Z,1.83
2017-09-05T23:01:30.993Z,1.70
2017-09-05T23:03:58.507Z,1.80
2017-09-05T23:06:26.025Z,1.90
2017-09-05T23:08:53.559Z,2.10
2017-09-05T23:11:21.057Z,2.07
2017-09-05T23:13:48.571Z,1.60
2017-09-05T23:16:16.104Z,2.50
2017-09-05T23:18:43.626Z,2.50
2017-09-05T23:21:11.155Z,2.30
2017-09-05T23:23:38.719Z,2.87
2017-09-05T23:26:06.241Z,2.83
2017-09-05T23:28:33.749Z,2.50
2017-09-05T23:31:01.297Z,2.33
2017-09-05T23:33:28.820Z,2.37
2017-09-05T23:35:56.333Z,2.47
2017-09-05T23:38:23.833Z,2.73
2017-09-05T23:40:51.375Z,2.40
2017-09-05T23:43:18.872Z,2.60
2017-09-05T23:45:46.366Z,2.37
2017-09-05T23:48:13.880Z,2.77
2017-09-05T23:50:41.405Z,2.77
2017-09-05T23:53:08.905Z,2.13
2017-09-05T23:55:36.423Z,2.33
2017-09-05T23:58:03.934Z,2.40
